createdAt,value
2022-11-28T00:01:23.811Z,19.27
2022-11-28T00:03:50.611Z,21.45
2022-11-28T00:06:18.026Z,21.55
2022-11-28T00:08:45.493Z,20.40
2022-11-28T00:11:14.620Z,28.15
2022-11-28T00:13:41.586Z,29.15
2022-11-28T00:16:12.974Z,22.45
2022-11-28T00:18:39.730Z,24.15
2022-11-28T00:21:09.705Z,27.90
2022-11-28T00:23:36.594Z,28.08
2022-11-28T00:26:09.650Z,22.67
2022-11-28T00:28:36.715Z,29.83
2022-11-28T00:31:03.693Z,22.75
2022-11-28T00:33:31.978Z,23.65
2022-11-28T00:36:01.371Z,28.65
2022-11-28T00:38:28.492Z,23.25
2022-11-28T00:41:03.260Z,22.75
2022-11-28T00:43:30.290Z,21.48
2022-11-28T00:45:57.300Z,20.27
2022-11-28T00:48:25.211Z,21.10
2022-11-28T00:50:52.906Z,24.77
2022-11-28T00:53:19.979Z,20.08
2022-11-28T00:55:46.650Z,19.85
2022-11-28T00:58:13.726Z,18.90
2022-11-28T01:00:40.584Z,20.83
2022-11-28T01:03:07.321Z,20.30
2022-11-28T01:05:39.231Z,19.58
2022-11-28T01:08:06.013Z,15.90
2022-11-28T01:10:32.798Z,18.63
2022-11-28T01:12:59.549Z,17.05
2022-11-28T01:15:26.357Z,20.27
2022-11-28T01:17:53.085Z,19.48
2022-11-28T01:20:19.814Z,18.70
2022-11-28T01:22:46.523Z,19.92
2022-11-28T01:25:13.202Z,20.27
2022-11-28T01:27:39.889Z,18.27
2022-11-28T01:30:07.381Z,19.20
2022-11-28T01:32:34.094Z,17.67
2022-11-28T01:35:00.778Z,16.98
2022-11-28T01:37:30.006Z,16.08
2022-11-28T01:39:57.164Z,15.80
2022-11-28T01:42:23.948Z,16.75
2022-11-28T01:44:50.594Z,16.17
2022-11-28T01:47:25.702Z,17.90
2022-11-28T01:49:54.090Z,19.05
2022-11-28T01:52:22.278Z,15.32
2022-11-28T01:54:55.233Z,16.27
2022-11-28T01:57:25.334Z,16.55
2022-11-28T02:00:14.368Z,15.82
2022-11-28T02:03:00.707Z,15.05
2022-11-28T02:05:27.415Z,13.77
2022-11-28T02:07:54.283Z,13.82
2022-11-28T02:10:32.639Z,14.00
2022-11-28T02:13:31.317Z,15.15
2022-11-28T02:16:06.825Z,16.40
2022-11-28T02:18:55.088Z,15.48
2022-11-28T02:21:40.434Z,16.42
2022-11-28T02:24:37.901Z,14.63
2022-11-28T02:27:46.743Z,15.50
2022-11-28T02:30:16.319Z,14.77
2022-11-28T02:33:24.004Z,14.30
2022-11-28T02:36:11.619Z,15.00
2022-11-28T02:39:10.012Z,14.63
2022-11-28T02:42:05.753Z,14.50
2022-11-28T02:44:43.672Z,14.52
2022-11-28T02:47:34.167Z,13.93
2022-11-28T02:50:08.970Z,13.88
2022-11-28T02:52:53.057Z,14.18
2022-11-28T02:55:20.411Z,14.07
2022-11-28T02:57:50.467Z,13.68
2022-11-28T03:00:25.751Z,15.50
2022-11-28T03:02:57.802Z,14.02
2022-11-28T03:05:39.255Z,15.38
2022-11-28T03:08:44.035Z,16.85
2022-11-28T03:11:20.517Z,13.93
2022-11-28T03:14:21.031Z,14.57
2022-11-28T03:17:02.009Z,14.30
2022-11-28T03:19:34.522Z,17.77
2022-11-28T03:22:06.973Z,15.55
2022-11-28T03:25:15.639Z,16.52
2022-11-28T03:27:51.767Z,16.58
2022-11-28T03:30:32.330Z,18.50
2022-11-28T03:33:02.308Z,18.05
2022-11-28T03:35:33.979Z,16.10
2022-11-28T03:38:07.094Z,16.27
2022-11-28T03:40:48.355Z,17.20
2022-11-28T03:43:21.220Z,16.20
2022-11-28T03:45:53.774Z,18.05
2022-11-28T03:48:27.086Z,18.63
2022-11-28T03:51:05.590Z,19.90
2022-11-28T03:54:09.143Z,17.05
2022-11-28T03:56:53.998Z,19.23
2022-11-28T03:59:33.282Z,19.38
2022-11-28T04:02:08.892Z,17.23
2022-11-28T04:05:00.450Z,19.92
2022-11-28T04:07:47.642Z,18.27
2022-11-28T04:10:33.154Z,19.67
2022-11-28T04:13:35.351Z,18.70
2022-11-28T04:16:09.434Z,19.17
2022-11-28T04:18:51.309Z,18.02
2022-11-28T04:21:43.874Z,18.90
2022-11-28T04:24:21.687Z,18.40
2022-11-28T04:27:02.269Z,20.08
2022-11-28T04:29:33.595Z,19.38
2022-11-28T04:32:02.625Z,24.05
2022-11-28T04:34:31.299Z,21.55
2022-11-28T04:36:59.935Z,20.90
2022-11-28T04:39:29.640Z,20.73
2022-11-28T04:42:13.367Z,19.88
2022-11-28T04:44:51.500Z,14.25
2022-11-28T04:47:18.651Z,17.90
2022-11-28T04:49:46.083Z,17.88
2022-11-28T04:52:17.478Z,20.75
2022-11-28T04:55:00.937Z,20.15
2022-11-28T04:57:36.786Z,18.92
2022-11-28T05:00:07.549Z,19.35
2022-11-28T05:02:36.352Z,17.83
2022-11-28T05:05:12.892Z,17.48
2022-11-28T05:07:39.645Z,18.60
2022-11-28T05:10:07.669Z,19.27
2022-11-28T05:12:34.551Z,16.70
2022-11-28T05:15:01.309Z,14.80
2022-11-28T05:17:28.356Z,16.98
2022-11-28T05:19:55.058Z,18.40
2022-11-28T05:22:22.143Z,15.65
2022-11-28T05:24:48.831Z,15.73
2022-11-28T05:27:15.633Z,17.73
2022-11-28T05:29:49.416Z,15.02
2022-11-28T05:32:18.738Z,15.15
2022-11-28T05:34:45.457Z,16.90
2022-11-28T05:37:12.260Z,19.35
2022-11-28T05:39:39.172Z,35.75
2022-11-28T05:42:06.134Z,31.23
2022-11-28T05:44:32.919Z,28.83
2022-11-28T05:46:59.569Z,21.00
2022-11-28T05:49:26.409Z,19.02
2022-11-28T05:51:53.104Z,19.73
2022-11-28T05:54:19.932Z,17.30
2022-11-28T05:56:46.818Z,18.35
2022-11-28T05:59:14.462Z,18.27
2022-11-28T06:01:41.238Z,19.17
2022-11-28T06:04:08.101Z,20.13
2022-11-28T06:06:37.267Z,21.45
2022-11-28T06:09:06.229Z,19.50
2022-11-28T06:11:34.050Z,22.15
2022-11-28T06:14:01.070Z,18.83
2022-11-28T06:16:29.928Z,18.80
2022-11-28T06:19:02.990Z,18.75
2022-11-28T06:21:30.937Z,18.60
2022-11-28T06:23:59.243Z,17.08
2022-11-28T06:26:27.292Z,15.57
2022-11-28T06:28:55.563Z,15.75
2022-11-28T06:31:28.666Z,16.48
2022-11-28T06:33:55.874Z,16.33
2022-11-28T06:36:23.205Z,17.10
2022-11-28T06:38:49.906Z,16.52
2022-11-28T06:41:18.884Z,18.13
2022-11-28T06:43:45.788Z,17.55
2022-11-28T06:46:17.689Z,18.75
2022-11-28T06:48:48.923Z,18.75
2022-11-28T06:51:16.154Z,16.00
2022-11-28T06:53:43.530Z,15.27
2022-11-28T06:56:15.970Z,19.45
2022-11-28T06:58:43.184Z,15.77
2022-11-28T07:01:19.013Z,17.45
2022-11-28T07:03:46.601Z,15.57
2022-11-28T07:06:16.511Z,16.15
2022-11-28T07:08:43.800Z,16.83
2022-11-28T07:11:16.414Z,14.82
2022-11-28T07:13:45.915Z,13.85
2022-11-28T07:16:21.652Z,13.32
2022-11-28T07:18:49.165Z,13.85
2022-11-28T07:21:42.303Z,13.68
2022-11-28T07:24:09.081Z,13.40
2022-11-28T07:26:37.975Z,15.18
2022-11-28T07:29:07.023Z,14.48
2022-11-28T07:31:34.015Z,15.00
2022-11-28T07:34:03.529Z,13.73
2022-11-28T07:36:30.848Z,13.25
2022-11-28T07:38:59.963Z,13.70
2022-11-28T07:41:27.925Z,13.15
2022-11-28T07:43:57.435Z,14.50
2022-11-28T07:46:26.142Z,13.27
2022-11-28T07:48:53.126Z,21.70
2022-11-28T07:51:25.355Z,31.13
2022-11-28T07:53:52.810Z,16.75
2022-11-28T07:56:22.649Z,16.30
2022-11-28T07:58:50.310Z,15.38
2022-11-28T08:01:18.640Z,13.82
2022-11-28T08:03:46.308Z,13.05
2022-11-28T08:06:14.423Z,15.05
2022-11-28T08:08:41.162Z,19.50
2022-11-28T08:11:09.269Z,15.90
2022-11-28T08:13:37.410Z,19.52
2022-11-28T08:16:10.185Z,25.10
2022-11-28T08:18:37.605Z,21.85
2022-11-28T08:21:09.891Z,19.80
2022-11-28T08:23:39.916Z,22.35
2022-11-28T08:26:09.191Z,20.08
2022-11-28T08:28:36.924Z,16.52
2022-11-28T08:31:17.238Z,18.38
2022-11-28T08:33:45.329Z,18.20
2022-11-28T08:36:14.644Z,18.70
2022-11-28T08:38:47.026Z,18.58
2022-11-28T08:41:22.790Z,22.85
2022-11-28T08:43:49.999Z,21.73
2022-11-28T08:46:20.535Z,24.60
2022-11-28T08:48:49.229Z,30.85
2022-11-28T08:51:18.570Z,31.75
2022-11-28T08:53:48.805Z,20.02
2022-11-28T08:56:16.557Z,19.85
2022-11-28T08:58:43.298Z,17.92
2022-11-28T09:01:16.512Z,19.65
2022-11-28T09:03:44.391Z,17.85
2022-11-28T09:06:11.238Z,18.33
2022-11-28T09:08:38.048Z,17.33
2022-11-28T09:11:10.893Z,20.73
2022-11-28T09:13:38.283Z,17.83
2022-11-28T09:16:05.732Z,19.13
2022-11-28T09:18:32.493Z,18.45
2022-11-28T09:21:11.874Z,16.73
2022-11-28T09:23:41.144Z,18.65
2022-11-28T09:26:18.933Z,20.00
2022-11-28T09:28:45.889Z,22.25
2022-11-28T09:31:14.421Z,24.85
2022-11-28T09:33:41.488Z,24.35
2022-11-28T09:36:10.909Z,21.25
2022-11-28T09:38:38.535Z,25.40
2022-11-28T09:41:28.805Z,28.90
2022-11-28T09:44:07.027Z,19.83
2022-11-28T09:46:52.484Z,16.90
2022-11-28T09:50:04.907Z,22.25
2022-11-28T09:52:51.176Z,17.17
2022-11-28T09:55:33.076Z,21.70
2022-11-28T09:58:05.538Z,18.67
2022-11-28T10:00:42.282Z,20.33
2022-11-28T10:03:14.981Z,35.28
2022-11-28T10:05:53.652Z,24.38
2022-11-28T10:08:35.650Z,22.83
2022-11-28T10:11:09.981Z,20.63
2022-11-28T10:17:04.339Z,22.08
2022-11-28T10:19:58.705Z,21.00
2022-11-28T10:22:59.375Z,18.55
2022-11-28T10:25:36.927Z,17.33
2022-11-28T10:28:28.886Z,17.70
2022-11-28T10:31:36.473Z,16.45
2022-11-28T10:34:16.622Z,13.82
2022-11-28T10:36:56.008Z,23.65
2022-11-28T10:39:24.878Z,41.95
2022-11-28T10:42:13.710Z,16.98
2022-11-28T10:45:10.320Z,17.35
2022-11-28T10:48:01.098Z,16.50
2022-11-28T10:50:39.683Z,18.58
2022-11-28T10:53:41.703Z,17.98
2022-11-28T10:56:25.982Z,14.75
2022-11-28T10:59:05.173Z,15.23
2022-11-28T11:01:37.042Z,16.20
2022-11-28T11:04:04.630Z,13.73
2022-11-28T11:06:41.313Z,15.65
2022-11-28T11:09:15.168Z,15.23
2022-11-28T11:11:55.179Z,15.77
2022-11-28T11:14:34.770Z,15.98
2022-11-28T11:17:01.713Z,14.35
2022-11-28T11:19:34.889Z,16.45
2022-11-28T11:22:06.150Z,14.13
2022-11-28T11:24:33.254Z,14.48
2022-11-28T11:27:14.951Z,15.68
2022-11-28T11:29:44.760Z,18.27
2022-11-28T11:32:38.469Z,16.60
2022-11-28T11:35:06.121Z,18.52
2022-11-28T11:37:38.457Z,15.23
2022-11-28T11:40:26.486Z,14.90
2022-11-28T11:42:59.638Z,15.05
2022-11-28T11:45:36.114Z,15.07
2022-11-28T11:48:04.365Z,15.32
2022-11-28T11:50:33.042Z,12.48
2022-11-28T11:53:04.205Z,18.30
2022-11-28T11:55:34.488Z,18.70
2022-11-28T11:58:05.888Z,15.52
2022-11-28T12:00:39.910Z,17.45
2022-11-28T12:03:24.409Z,13.93
2022-11-28T12:06:13.844Z,21.17
2022-11-28T12:09:02.707Z,14.60
2022-11-28T12:11:33.763Z,33.33
2022-11-28T12:14:16.783Z,16.95
2022-11-28T12:16:52.326Z,18.17
2022-11-28T12:19:43.625Z,23.13
2022-11-28T12:22:19.146Z,14.07
2022-11-28T12:25:14.044Z,11.80
2022-11-28T12:28:17.654Z,12.07
2022-11-28T12:30:54.046Z,12.48
2022-11-28T12:33:36.168Z,13.07
2022-11-28T12:36:12.207Z,16.02
2022-11-28T12:38:52.521Z,16.33
2022-11-28T12:41:34.006Z,25.55
2022-11-28T12:44:12.695Z,25.60
2022-11-28T12:46:52.585Z,21.00
2022-11-28T12:49:38.858Z,17.40
2022-11-28T12:53:00.111Z,18.95
2022-11-28T12:55:41.429Z,29.17
2022-11-28T12:58:21.960Z,22.52
2022-11-28T13:01:05.988Z,29.17
2022-11-28T13:03:58.409Z,21.55
2022-11-28T13:06:40.729Z,21.80
2022-11-28T13:09:34.039Z,17.92
2022-11-28T13:12:34.999Z,18.10
2022-11-28T13:15:09.868Z,14.27
2022-11-28T13:17:47.087Z,15.80
2022-11-28T13:20:39.936Z,56.17
2022-11-28T13:23:18.182Z,22.80
2022-11-28T13:25:51.876Z,20.67
2022-11-28T13:28:42.729Z,17.48
2022-11-28T13:31:34.019Z,18.33
2022-11-28T13:34:01.266Z,18.85
2022-11-28T13:39:49.419Z,28.70
2022-11-28T13:43:02.889Z,27.42
2022-11-28T13:45:39.129Z,31.75
2022-11-28T13:49:06.079Z,28.48
2022-11-28T13:51:33.657Z,25.13
2022-11-28T13:54:19.683Z,35.40
2022-11-28T13:57:02.846Z,31.85
2022-11-28T13:59:30.894Z,30.58
2022-11-28T14:02:01.822Z,34.45
2022-11-28T14:04:31.163Z,32.03
2022-11-28T14:07:07.150Z,29.85
2022-11-28T14:10:01.404Z,35.40
2022-11-28T14:13:01.988Z,41.22
2022-11-28T14:15:50.683Z,33.75
2022-11-28T14:18:58.810Z,32.90
2022-11-28T14:21:31.752Z,24.17
2022-11-28T14:24:19.267Z,29.70
2022-11-28T14:26:46.286Z,21.73
2022-11-28T14:29:26.022Z,20.80
2022-11-28T14:32:21.699Z,29.33
2022-11-28T14:34:48.897Z,25.75
2022-11-28T14:37:21.757Z,24.55
2022-11-28T14:39:49.595Z,33.35
2022-11-28T14:42:36.982Z,32.83
2022-11-28T14:45:39.581Z,21.20
2022-11-28T14:48:15.605Z,21.33
2022-11-28T14:50:42.358Z,21.48
2022-11-28T14:53:45.587Z,18.67
2022-11-28T14:56:15.452Z,15.73
2022-11-28T14:58:49.671Z,16.27
2022-11-28T15:01:27.774Z,18.83
2022-11-28T15:04:07.496Z,17.85
2022-11-28T15:06:36.867Z,25.15
2022-11-28T15:09:32.929Z,19.65
2022-11-28T15:12:02.636Z,21.70
2022-11-28T15:14:31.986Z,17.08
2022-11-28T15:17:04.100Z,17.00
2022-11-28T15:19:36.837Z,23.05
2022-11-28T15:22:03.762Z,21.13
2022-11-28T15:24:33.634Z,22.13
2022-11-28T15:27:12.242Z,22.13
2022-11-28T15:29:39.039Z,19.42
2022-11-28T15:32:06.309Z,23.13
2022-11-28T15:34:35.245Z,19.85
2022-11-28T15:37:05.299Z,23.48
2022-11-28T15:39:40.408Z,17.33
2022-11-28T15:42:32.483Z,18.67
2022-11-28T15:45:19.728Z,16.50
2022-11-28T15:47:48.268Z,28.83
2022-11-28T15:50:19.626Z,20.13
2022-11-28T15:52:54.659Z,18.88
2022-11-28T15:55:22.181Z,16.55
2022-11-28T15:57:48.867Z,17.50
2022-11-28T16:00:22.016Z,20.50
2022-11-28T16:02:49.135Z,19.05
2022-11-28T16:05:21.819Z,19.83
2022-11-28T16:07:51.329Z,21.38
2022-11-28T16:10:25.561Z,17.50
2022-11-28T16:13:00.591Z,16.13
2022-11-28T16:15:28.252Z,17.50
2022-11-28T16:17:55.981Z,16.48
2022-11-28T16:20:43.534Z,14.98
2022-11-28T16:23:19.478Z,15.35
2022-11-28T16:25:57.845Z,17.52
2022-11-28T16:28:36.390Z,15.35
2022-11-28T16:31:11.449Z,19.20
2022-11-28T16:33:43.899Z,21.38
2022-11-28T16:36:33.868Z,13.98
2022-11-28T16:39:12.132Z,19.98
2022-11-28T16:42:20.336Z,19.80
2022-11-28T16:44:47.215Z,17.13
2022-11-28T16:47:26.822Z,18.65
2022-11-28T16:50:16.116Z,21.27
2022-11-28T16:52:54.198Z,17.05
2022-11-28T16:55:29.996Z,20.40
2022-11-28T16:58:03.744Z,15.13
2022-11-28T17:00:31.430Z,15.52
2022-11-28T17:02:58.261Z,19.38
2022-11-28T17:05:25.145Z,26.17
2022-11-28T17:07:53.398Z,24.83
2022-11-28T17:10:20.286Z,22.45
2022-11-28T17:12:47.094Z,16.25
2022-11-28T17:15:20.554Z,19.98
2022-11-28T17:17:47.609Z,24.75
2022-11-28T17:20:15.111Z,20.15
2022-11-28T17:22:44.458Z,22.38
2022-11-28T17:25:16.613Z,22.13
2022-11-28T17:27:43.557Z,23.02
2022-11-28T17:30:14.395Z,31.73
2022-11-28T17:32:41.126Z,22.75
2022-11-28T17:35:16.066Z,26.58
2022-11-28T17:37:42.756Z,27.48
2022-11-28T17:40:28.067Z,43.65
2022-11-28T17:42:54.717Z,27.63
2022-11-28T17:45:22.409Z,24.50
2022-11-28T17:47:49.164Z,45.35
2022-11-28T17:50:16.237Z,35.55
2022-11-28T17:52:43.241Z,44.90
2022-11-28T17:55:10.009Z,38.55
2022-11-28T17:57:37.166Z,37.20
2022-11-28T18:00:08.472Z,32.40
2022-11-28T18:02:35.267Z,29.35
2022-11-28T18:05:01.994Z,23.25
2022-11-28T18:07:29.991Z,22.73
2022-11-28T18:09:56.790Z,23.58
2022-11-28T18:12:23.516Z,20.10
2022-11-28T18:14:50.187Z,22.13
2022-11-28T18:17:16.892Z,17.15
2022-11-28T18:19:43.896Z,15.98
2022-11-28T18:22:10.896Z,19.08
2022-11-28T18:24:37.791Z,20.95
2022-11-28T18:27:04.530Z,14.45
2022-11-28T18:29:31.628Z,14.13
2022-11-28T18:31:58.608Z,13.77
2022-11-28T18:34:25.343Z,18.77
2022-11-28T18:36:58.565Z,19.20
2022-11-28T18:39:25.297Z,18.17
2022-11-28T18:41:52.024Z,18.08
2022-11-28T18:44:18.950Z,19.23
2022-11-28T18:46:45.863Z,22.98
2022-11-28T18:49:15.094Z,18.63
2022-11-28T18:51:41.966Z,17.45
2022-11-28T18:54:09.532Z,14.95
2022-11-28T18:56:36.335Z,15.63
2022-11-28T18:59:03.259Z,18.42
2022-11-28T19:01:32.872Z,16.70
2022-11-28T19:04:05.797Z,18.25
2022-11-28T19:06:34.662Z,16.70
2022-11-28T19:09:03.578Z,14.23
2022-11-28T19:11:31.793Z,17.00
2022-11-28T19:13:58.905Z,16.77
2022-11-28T19:16:29.875Z,17.63
2022-11-28T19:18:57.897Z,14.30
2022-11-28T19:21:27.336Z,14.75
2022-11-28T19:23:57.713Z,16.88
2022-11-28T19:26:26.799Z,16.08
2022-11-28T19:28:54.658Z,15.32
2022-11-28T19:31:23.825Z,15.18
2022-11-28T19:34:08.504Z,18.67
2022-11-28T19:36:39.513Z,24.92
2022-11-28T19:39:07.326Z,41.67
2022-11-28T19:41:34.260Z,32.15
2022-11-28T19:44:01.076Z,28.13
2022-11-28T19:46:31.853Z,23.30
2022-11-28T19:49:02.347Z,17.45
2022-11-28T19:51:29.028Z,23.65
2022-11-28T19:54:01.371Z,21.55
2022-11-28T19:56:29.912Z,28.00
2022-11-28T19:58:56.604Z,27.38
2022-11-28T20:01:24.899Z,26.83
2022-11-28T20:03:52.766Z,26.77
2022-11-28T20:06:28.975Z,31.73
2022-11-28T20:08:58.389Z,28.35
2022-11-28T20:11:28.626Z,21.80
2022-11-28T20:14:04.351Z,28.27
2022-11-28T20:16:32.352Z,34.40
2022-11-28T20:19:03.276Z,27.58
2022-11-28T20:21:30.950Z,33.60
2022-11-28T20:24:04.341Z,33.90
2022-11-28T20:26:34.502Z,37.08
2022-11-28T20:29:20.014Z,34.42
2022-11-28T20:31:47.672Z,29.23
2022-11-28T20:34:15.811Z,28.27
2022-11-28T20:36:43.336Z,31.23
2022-11-28T20:39:11.104Z,30.33
2022-11-28T20:41:37.809Z,30.98
2022-11-28T20:44:04.767Z,26.42
2022-11-28T20:46:33.698Z,26.42
2022-11-28T20:49:03.137Z,25.65
2022-11-28T20:51:31.855Z,25.23
2022-11-28T20:53:59.180Z,28.95
2022-11-28T20:56:31.787Z,31.45
2022-11-28T20:59:00.971Z,31.80
2022-11-28T21:01:36.557Z,26.52
2022-11-28T21:04:05.187Z,29.73
2022-11-28T21:06:31.997Z,28.75
2022-11-28T21:08:58.912Z,24.83
2022-11-28T21:11:55.266Z,34.15
2022-11-28T21:14:15.284Z,27.25
2022-11-28T21:16:42.524Z,26.27
2022-11-28T21:19:09.706Z,27.10
2022-11-28T21:21:38.375Z,27.00
2022-11-28T21:24:08.545Z,20.80
2022-11-28T21:26:40.911Z,22.63
2022-11-28T21:29:11.198Z,25.03
2022-11-28T21:31:41.909Z,23.52
2022-11-28T21:34:14.370Z,26.08
2022-11-28T21:36:41.723Z,22.00
2022-11-28T21:39:13.579Z,19.58
2022-11-28T21:41:40.609Z,19.52
2022-11-28T21:44:07.475Z,21.58
2022-11-28T21:46:34.241Z,18.73
2022-11-28T21:49:02.009Z,18.40
2022-11-28T21:51:28.893Z,17.55
2022-11-28T21:53:57.509Z,16.65
2022-11-28T21:56:25.106Z,14.77
2022-11-28T21:58:52.116Z,17.17
2022-11-28T22:01:20.289Z,14.15
2022-11-28T22:03:47.240Z,16.35
2022-11-28T22:06:25.848Z,17.20
2022-11-28T22:08:53.830Z,15.02
2022-11-28T22:11:21.408Z,15.38
2022-11-28T22:13:48.994Z,19.00
2022-11-28T22:16:23.221Z,16.60
2022-11-28T22:18:51.915Z,21.30
2022-11-28T22:21:52.990Z,18.05
2022-11-28T22:24:08.258Z,14.20
2022-11-28T22:26:35.164Z,13.13
2022-11-28T22:29:04.022Z,13.73
2022-11-28T22:31:31.243Z,13.27
2022-11-28T22:33:58.423Z,15.25
2022-11-28T22:36:25.563Z,16.02
2022-11-28T22:38:57.195Z,15.32
2022-11-28T22:41:29.040Z,14.30
2022-11-28T22:44:00.236Z,14.40
2022-11-28T22:46:27.740Z,12.63
2022-11-28T22:48:54.481Z,13.15
2022-11-28T22:51:26.610Z,16.48
2022-11-28T22:53:58.372Z,17.48
2022-11-28T22:56:25.900Z,14.13
2022-11-28T22:58:52.791Z,12.80
2022-11-28T23:01:22.747Z,14.70
2022-11-28T23:03:50.090Z,12.77
2022-11-28T23:06:28.946Z,13.77
2022-11-28T23:09:00.770Z,13.57
2022-11-28T23:11:30.334Z,12.73
2022-11-28T23:13:57.161Z,24.02
2022-11-28T23:16:33.074Z,16.80
2022-11-28T23:19:02.622Z,21.23
2022-11-28T23:21:33.647Z,19.48
2022-11-28T23:24:00.434Z,18.02
2022-11-28T23:26:29.866Z,23.02
2022-11-28T23:29:02.709Z,20.27
2022-11-28T23:31:32.437Z,15.93
2022-11-28T23:34:01.710Z,16.75
2022-11-28T23:36:42.377Z,16.75
2022-11-28T23:39:17.921Z,17.90
2022-11-28T23:41:45.957Z,16.38
2022-11-28T23:44:13.755Z,18.30
2022-11-28T23:46:40.932Z,17.50
2022-11-28T23:49:08.100Z,17.30
2022-11-28T23:51:35.217Z,16.35
2022-11-28T23:54:02.222Z,18.35
2022-11-28T23:56:31.229Z,18.77
2022-11-28T23:59:01.109Z,18.05
